sensor_id;sensor_type;location;lat;lon;timestamp;temperature;humidity
54796;DHT22;40693;43.884;20.340;2023-04-06T00:01:50;103.00;2227.20
54796;DHT22;40693;43.884;20.340;2023-04-06T00:04:16;103.00;2227.20
54796;DHT22;40693;43.884;20.340;2023-04-06T00:06:41;103.00;2227.20
54796;DHT22;40693;43.884;20.340;2023-04-06T00:09:07;103.00;2227.20
54796;DHT22;40693;43.884;20.340;2023-04-06T00:11:33;103.00;2227.20
54796;DHT22;40693;43.884;20.340;2023-04-06T00:13:59;103.00;2227.20
54796;DHT22;40693;43.884;20.340;2023-04-06T00:16:25;103.10;2227.20
54796;DHT22;40693;43.884;20.340;2023-04-06T00:18:51;103.10;2227.20
54796;DHT22;40693;43.884;20.340;2023-04-06T00:21:17;103.10;2227.20
54796;DHT22;40693;43.884;20.340;2023-04-06T00:23:43;103.10;2227.20
54796;DHT22;40693;43.884;20.340;2023-04-06T00:26:09;103.10;2227.20
54796;DHT22;40693;43.884;20.340;2023-04-06T00:28:37;103.00;2227.20
54796;DHT22;40693;43.884;20.340;2023-04-06T00:31:02;103.00;2227.20
54796;DHT22;40693;43.884;20.340;2023-04-06T00:33:28;103.00;2227.20
54796;DHT22;40693;43.884;20.340;2023-04-06T00:35:54;103.00;2227.20
54796;DHT22;40693;43.884;20.340;2023-04-06T00:38:20;102.90;2227.20
54796;DHT22;40693;43.884;20.340;2023-04-06T00:40:46;102.90;2227.20
54796;DHT22;40693;43.884;20.340;2023-04-06T00:43:12;102.80;2227.20
54796;DHT22;40693;43.884;20.340;2023-04-06T00:45:38;102.70;2227.20
54796;DHT22;40693;43.884;20.340;2023-04-06T00:48:05;102.70;2227.20
54796;DHT22;40693;43.884;20.340;2023-04-06T00:50:31;102.70;2227.20
54796;DHT22;40693;43.884;20.340;2023-04-06T00:52:58;102.60;2227.20
54796;DHT22;40693;43.884;20.340;2023-04-06T00:55:26;102.70;2227.20
54796;DHT22;40693;43.884;20.340;2023-04-06T00:57:51;102.70;2227.20
54796;DHT22;40693;43.884;20.340;2023-04-06T01:00:17;102.70;2227.20
54796;DHT22;40693;43.884;20.340;2023-04-06T01:02:43;102.70;2227.20
54796;DHT22;40693;43.884;20.340;2023-04-06T01:05:10;102.70;2227.20
54796;DHT22;40693;43.884;20.340;2023-04-06T01:07:36;102.80;2227.20
54796;DHT22;40693;43.884;20.340;2023-04-06T01:10:03;102.80;2227.20
54796;DHT22;40693;43.884;20.340;2023-04-06T01:12:29;102.80;2227.20
54796;DHT22;40693;43.884;20.340;2023-04-06T01:14:55;102.90;2227.20
54796;DHT22;40693;43.884;20.340;2023-04-06T01:17:21;102.90;2227.20
54796;DHT22;40693;43.884;20.340;2023-04-06T01:19:47;103.00;2227.20
54796;DHT22;40693;43.884;20.340;2023-04-06T01:22:18;103.00;2227.20
54796;DHT22;40693;43.884;20.340;2023-04-06T01:24:44;103.00;2227.20
54796;DHT22;40693;43.884;20.340;2023-04-06T01:27:10;103.10;2227.20
54796;DHT22;40693;43.884;20.340;2023-04-06T01:29:36;103.10;2227.20
54796;DHT22;40693;43.884;20.340;2023-04-06T01:32:02;103.10;2227.20
54796;DHT22;40693;43.884;20.340;2023-04-06T01:34:28;103.20;2227.20
54796;DHT22;40693;43.884;20.340;2023-04-06T01:36:54;103.20;2227.20
54796;DHT22;40693;43.884;20.340;2023-04-06T01:39:20;103.20;2227.20
54796;DHT22;40693;43.884;20.340;2023-04-06T01:41:46;103.20;2227.20
54796;DHT22;40693;43.884;20.340;2023-04-06T01:44:16;103.30;2227.20
54796;DHT22;40693;43.884;20.340;2023-04-06T01:46:43;103.20;2227.20
54796;DHT22;40693;43.884;20.340;2023-04-06T01:49:09;103.30;2227.20
54796;DHT22;40693;43.884;20.340;2023-04-06T01:51:35;103.30;2227.20
54796;DHT22;40693;43.884;20.340;2023-04-06T01:54:00;103.30;2227.20
54796;DHT22;40693;43.884;20.340;2023-04-06T01:56:26;103.30;2227.20
54796;DHT22;40693;43.884;20.340;2023-04-06T01:58:52;103.30;2227.20
54796;DHT22;40693;43.884;20.340;2023-04-06T02:01:17;103.20;2227.20
54796;DHT22;40693;43.884;20.340;2023-04-06T02:03:43;103.20;2227.20
54796;DHT22;40693;43.884;20.340;2023-04-06T02:06:09;103.20;2227.20
54796;DHT22;40693;43.884;20.340;2023-04-06T02:08:35;103.20;2227.20
54796;DHT22;40693;43.884;20.340;2023-04-06T02:11:00;103.20;2227.20
54796;DHT22;40693;43.884;20.340;2023-04-06T02:13:26;103.00;2227.20
54796;DHT22;40693;43.884;20.340;2023-04-06T02:15:52;102.90;2227.20
54796;DHT22;40693;43.884;20.340;2023-04-06T02:18:18;102.90;2227.20
54796;DHT22;40693;43.884;20.340;2023-04-06T02:20:44;102.90;2227.20
54796;DHT22;40693;43.884;20.340;2023-04-06T02:23:10;102.80;2227.20
54796;DHT22;40693;43.884;20.340;2023-04-06T02:25:36;102.80;2227.20
54796;DHT22;40693;43.884;20.340;2023-04-06T02:28:02;102.80;2227.20
54796;DHT22;40693;43.884;20.340;2023-04-06T02:30:28;102.70;2227.20
54796;DHT22;40693;43.884;20.340;2023-04-06T02:32:54;102.70;2227.20
54796;DHT22;40693;43.884;20.340;2023-04-06T02:35:22;102.60;2227.20
54796;DHT22;40693;43.884;20.340;2023-04-06T02:37:47;102.50;2227.20
54796;DHT22;40693;43.884;20.340;2023-04-06T02:40:14;102.50;2227.20
54796;DHT22;40693;43.884;20.340;2023-04-06T02:42:39;102.50;2227.20
54796;DHT22;40693;43.884;20.340;2023-04-06T02:45:06;102.50;2227.20
54796;DHT22;40693;43.884;20.340;2023-04-06T02:47:32;102.50;2227.20
54796;DHT22;40693;43.884;20.340;2023-04-06T02:49:58;102.50;2227.20
54796;DHT22;40693;43.884;20.340;2023-04-06T02:52:24;102.50;2227.20
54796;DHT22;40693;43.884;20.340;2023-04-06T02:54:49;102.40;2227.20
54796;DHT22;40693;43.884;20.340;2023-04-06T02:57:16;102.40;2227.20
54796;DHT22;40693;43.884;20.340;2023-04-06T02:59:42;102.40;2227.20
54796;DHT22;40693;43.884;20.340;2023-04-06T03:02:08;77.70;2227.20
54796;DHT22;40693;43.884;20.340;2023-04-06T03:04:34;77.70;2227.20
54796;DHT22;40693;43.884;20.340;2023-04-06T03:07:00;77.70;2227.20
54796;DHT22;40693;43.884;20.340;2023-04-06T03:09:26;77.70;2227.20
54796;DHT22;40693;43.884;20.340;2023-04-06T03:11:51;77.60;2227.20
54796;DHT22;40693;43.884;20.340;2023-04-06T03:14:17;77.60;2227.20
54796;DHT22;40693;43.884;20.340;2023-04-06T03:16:47;77.60;2227.20
54796;DHT22;40693;43.884;20.340;2023-04-06T03:19:13;77.50;2227.20
54796;DHT22;40693;43.884;20.340;2023-04-06T03:21:39;77.50;2227.20
54796;DHT22;40693;43.884;20.340;2023-04-06T03:24:05;77.50;2227.20
54796;DHT22;40693;43.884;20.340;2023-04-06T03:26:31;77.50;2227.20
54796;DHT22;40693;43.884;20.340;2023-04-06T03:28:57;77.50;2227.20
54796;DHT22;40693;43.884;20.340;2023-04-06T03:31:22;77.60;2227.20
54796;DHT22;40693;43.884;20.340;2023-04-06T03:33:48;77.60;2227.20
54796;DHT22;40693;43.884;20.340;2023-04-06T03:36:14;77.50;2227.20
54796;DHT22;40693;43.884;20.340;2023-04-06T03:38:40;77.50;2227.20
54796;DHT22;40693;43.884;20.340;2023-04-06T03:41:06;77.60;2227.20
54796;DHT22;40693;43.884;20.340;2023-04-06T03:43:31;77.60;2227.20
54796;DHT22;40693;43.884;20.340;2023-04-06T03:45:57;77.60;2227.20
54796;DHT22;40693;43.884;20.340;2023-04-06T03:48:23;77.60;2227.20
54796;DHT22;40693;43.884;20.340;2023-04-06T03:50:48;77.70;2227.20
54796;DHT22;40693;43.884;20.340;2023-04-06T03:53:14;77.60;2227.20
54796;DHT22;40693;43.884;20.340;2023-04-06T03:55:40;77.70;2227.20
54796;DHT22;40693;43.884;20.340;2023-04-06T03:58:06;77.70;2227.20
54796;DHT22;40693;43.884;20.340;2023-04-06T04:00:32;77.60;2227.20
54796;DHT22;40693;43.884;20.340;2023-04-06T04:02:58;77.70;2227.20
54796;DHT22;40693;43.884;20.340;2023-04-06T04:05:24;77.60;2227.20
54796;DHT22;40693;43.884;20.340;2023-04-06T04:07:51;77.60;2227.20
54796;DHT22;40693;43.884;20.340;2023-04-06T04:10:17;77.60;2227.20
54796;DHT22;40693;43.884;20.340;2023-04-06T04:12:43;77.60;2227.20
54796;DHT22;40693;43.884;20.340;2023-04-06T04:15:09;77.60;2227.20
54796;DHT22;40693;43.884;20.340;2023-04-06T04:17:35;77.60;2227.20
54796;DHT22;40693;43.884;20.340;2023-04-06T04:20:01;77.50;2227.20
54796;DHT22;40693;43.884;20.340;2023-04-06T04:22:26;77.50;2227.20
54796;DHT22;40693;43.884;20.340;2023-04-06T04:24:53;77.50;2227.20
54796;DHT22;40693;43.884;20.340;2023-04-06T04:27:19;77.50;2227.20
54796;DHT22;40693;43.884;20.340;2023-04-06T04:29:46;77.50;2227.20
54796;DHT22;40693;43.884;20.340;2023-04-06T04:32:11;77.50;2227.20
54796;DHT22;40693;43.884;20.340;2023-04-06T04:34:37;77.50;2227.20
54796;DHT22;40693;43.884;20.340;2023-04-06T04:37:05;77.50;2227.20
54796;DHT22;40693;43.884;20.340;2023-04-06T04:39:32;77.50;2227.20
54796;DHT22;40693;43.884;20.340;2023-04-06T04:41:57;77.50;2227.20
54796;DHT22;40693;43.884;20.340;2023-04-06T04:44:23;77.50;2227.20
54796;DHT22;40693;43.884;20.340;2023-04-06T04:46:49;77.60;2227.20
54796;DHT22;40693;43.884;20.340;2023-04-06T04:49:15;77.60;2227.20
54796;DHT22;40693;43.884;20.340;2023-04-06T04:51:40;77.60;2227.20
54796;DHT22;40693;43.884;20.340;2023-04-06T04:54:06;77.70;2227.20
54796;DHT22;40693;43.884;20.340;2023-04-06T04:56:32;77.70;2227.20
54796;DHT22;40693;43.884;20.340;2023-04-06T04:58:57;77.70;2227.20
54796;DHT22;40693;43.884;20.340;2023-04-06T05:01:23;77.70;2227.20
54796;DHT22;40693;43.884;20.340;2023-04-06T05:03:49;77.70;2227.20
54796;DHT22;40693;43.884;20.340;2023-04-06T05:06:15;77.70;2227.20
54796;DHT22;40693;43.884;20.340;2023-04-06T05:08:41;77.70;2227.20
54796;DHT22;40693;43.884;20.340;2023-04-06T05:11:08;77.70;2227.20
54796;DHT22;40693;43.884;20.340;2023-04-06T05:13:33;77.70;2227.20
54796;DHT22;40693;43.884;20.340;2023-04-06T05:16:00;77.70;2227.20
54796;DHT22;40693;43.884;20.340;2023-04-06T05:18:26;77.60;2227.20
54796;DHT22;40693;43.884;20.340;2023-04-06T05:20:52;77.60;2227.20
54796;DHT22;40693;43.884;20.340;2023-04-06T05:23:18;77.70;2227.20
54796;DHT22;40693;43.884;20.340;2023-04-06T05:25:44;77.70;2227.20
54796;DHT22;40693;43.884;20.340;2023-04-06T05:28:10;77.70;2227.20
54796;DHT22;40693;43.884;20.340;2023-04-06T05:30:35;77.70;2227.20
54796;DHT22;40693;43.884;20.340;2023-04-06T05:33:02;77.70;2227.20
54796;DHT22;40693;43.884;20.340;2023-04-06T05:35:28;77.70;2227.20
54796;DHT22;40693;43.884;20.340;2023-04-06T05:37:53;77.70;2227.20
54796;DHT22;40693;43.884;20.340;2023-04-06T05:40:19;77.70;2227.20
54796;DHT22;40693;43.884;20.340;2023-04-06T05:42:45;102.40;2227.20
54796;DHT22;40693;43.884;20.340;2023-04-06T05:45:12;102.40;2227.20
54796;DHT22;40693;43.884;20.340;2023-04-06T05:47:42;102.40;2227.20
54796;DHT22;40693;43.884;20.340;2023-04-06T05:50:10;102.40;2227.20
54796;DHT22;40693;43.884;20.340;2023-04-06T05:52:36;102.40;2227.20
54796;DHT22;40693;43.884;20.340;2023-04-06T05:55:02;102.40;2227.20
54796;DHT22;40693;43.884;20.340;2023-04-06T05:57:28;102.40;2227.20
54796;DHT22;40693;43.884;20.340;2023-04-06T05:59:54;102.40;2227.20
54796;DHT22;40693;43.884;20.340;2023-04-06T06:02:21;102.40;2227.20
54796;DHT22;40693;43.884;20.340;2023-04-06T06:04:47;102.40;2227.20
54796;DHT22;40693;43.884;20.340;2023-04-06T06:07:14;102.40;2227.20
54796;DHT22;40693;43.884;20.340;2023-04-06T06:09:40;102.40;2227.20
54796;DHT22;40693;43.884;20.340;2023-04-06T06:12:06;102.50;2227.20
54796;DHT22;40693;43.884;20.340;2023-04-06T06:14:32;102.50;2227.20
54796;DHT22;40693;43.884;20.340;2023-04-06T06:16:57;102.50;2227.20
54796;DHT22;40693;43.884;20.340;2023-04-06T06:19:23;102.50;2227.20
54796;DHT22;40693;43.884;20.340;2023-04-06T06:21:49;102.60;2227.20
54796;DHT22;40693;43.884;20.340;2023-04-06T06:24:15;102.60;2227.20
54796;DHT22;40693;43.884;20.340;2023-04-06T06:26:41;102.60;2227.20
54796;DHT22;40693;43.884;20.340;2023-04-06T06:29:07;102.60;2227.20
54796;DHT22;40693;43.884;20.340;2023-04-06T06:31:32;102.60;2227.20
54796;DHT22;40693;43.884;20.340;2023-04-06T06:33:58;102.70;2227.20
54796;DHT22;40693;43.884;20.340;2023-04-06T06:36:25;102.70;2227.20
54796;DHT22;40693;43.884;20.340;2023-04-06T06:38:51;102.70;2227.20
54796;DHT22;40693;43.884;20.340;2023-04-06T06:41:17;102.60;2227.20
54796;DHT22;40693;43.884;20.340;2023-04-06T06:43:43;102.70;2227.20
54796;DHT22;40693;43.884;20.340;2023-04-06T06:46:08;102.70;2227.20
54796;DHT22;40693;43.884;20.340;2023-04-06T06:48:34;102.70;2227.20
54796;DHT22;40693;43.884;20.340;2023-04-06T06:51:00;102.70;2227.20
54796;DHT22;40693;43.884;20.340;2023-04-06T06:53:26;102.70;2227.20
54796;DHT22;40693;43.884;20.340;2023-04-06T06:55:52;102.70;2227.20
54796;DHT22;40693;43.884;20.340;2023-04-06T06:58:18;102.80;2227.20
54796;DHT22;40693;43.884;20.340;2023-04-06T07:00:45;102.80;2227.20
54796;DHT22;40693;43.884;20.340;2023-04-06T07:03:11;102.80;2227.20
54796;DHT22;40693;43.884;20.340;2023-04-06T07:05:37;102.90;2227.20
54796;DHT22;40693;43.884;20.340;2023-04-06T07:08:03;102.90;2227.20
54796;DHT22;40693;43.884;20.340;2023-04-06T07:10:29;102.90;2227.20
54796;DHT22;40693;43.884;20.340;2023-04-06T07:12:55;103.00;2227.20
54796;DHT22;40693;43.884;20.340;2023-04-06T07:15:21;102.90;2227.20
54796;DHT22;40693;43.884;20.340;2023-04-06T07:17:47;102.90;2227.20
54796;DHT22;40693;43.884;20.340;2023-04-06T07:20:13;103.00;2227.20
54796;DHT22;40693;43.884;20.340;2023-04-06T07:22:41;103.00;2227.20
54796;DHT22;40693;43.884;20.340;2023-04-06T07:25:07;103.00;2227.20
54796;DHT22;40693;43.884;20.340;2023-04-06T07:27:33;103.00;2227.20
54796;DHT22;40693;43.884;20.340;2023-04-06T07:29:59;102.80;2227.20
54796;DHT22;40693;43.884;20.340;2023-04-06T07:32:25;103.10;2227.20
54796;DHT22;40693;43.884;20.340;2023-04-06T07:34:51;103.20;2227.20
54796;DHT22;40693;43.884;20.340;2023-04-06T07:37:17;103.10;2227.20
54796;DHT22;40693;43.884;20.340;2023-04-06T07:39:43;103.20;2227.20
54796;DHT22;40693;43.884;20.340;2023-04-06T07:42:08;103.30;2227.20
54796;DHT22;40693;43.884;20.340;2023-04-06T07:44:34;103.30;2227.20
54796;DHT22;40693;43.884;20.340;2023-04-06T07:47:00;103.30;2227.20
54796;DHT22;40693;43.884;20.340;2023-04-06T07:49:26;103.30;2227.20
54796;DHT22;40693;43.884;20.340;2023-04-06T07:51:51;128.00;2252.80
54796;DHT22;40693;43.884;20.340;2023-04-06T07:54:17;103.30;2227.20
54796;DHT22;40693;43.884;20.340;2023-04-06T07:56:43;128.00;2252.80
54796;DHT22;40693;43.884;20.340;2023-04-06T07:59:09;128.00;2252.80
54796;DHT22;40693;43.884;20.340;2023-04-06T08:01:36;128.00;2252.80
54796;DHT22;40693;43.884;20.340;2023-04-06T08:04:02;128.00;2252.80
54796;DHT22;40693;43.884;20.340;2023-04-06T08:06:28;128.00;2252.80
54796;DHT22;40693;43.884;20.340;2023-04-06T08:08:54;128.10;2252.80
54796;DHT22;40693;43.884;20.340;2023-04-06T08:11:20;128.10;2252.80
54796;DHT22;40693;43.884;20.340;2023-04-06T08:13:46;128.20;2252.80
54796;DHT22;40693;43.884;20.340;2023-04-06T08:16:12;128.20;2252.80
54796;DHT22;40693;43.884;20.340;2023-04-06T08:18:37;128.20;2252.80
54796;DHT22;40693;43.884;20.340;2023-04-06T08:21:03;128.20;2252.80
54796;DHT22;40693;43.884;20.340;2023-04-06T08:23:29;128.30;2252.80
54796;DHT22;40693;43.884;20.340;2023-04-06T08:25:55;128.30;2252.80
54796;DHT22;40693;43.884;20.340;2023-04-06T08:28:21;128.30;2252.80
54796;DHT22;40693;43.884;20.340;2023-04-06T08:30:47;128.40;2252.80
54796;DHT22;40693;43.884;20.340;2023-04-06T08:33:13;128.30;2252.80
54796;DHT22;40693;43.884;20.340;2023-04-06T08:35:39;128.30;2252.80
54796;DHT22;40693;43.884;20.340;2023-04-06T08:38:05;128.40;2252.80
54796;DHT22;40693;43.884;20.340;2023-04-06T08:40:36;128.40;2252.80
54796;DHT22;40693;43.884;20.340;2023-04-06T08:43:03;128.40;2252.80
54796;DHT22;40693;43.884;20.340;2023-04-06T08:45:34;128.40;2252.80
54796;DHT22;40693;43.884;20.340;2023-04-06T08:48:00;128.40;2252.80
54796;DHT22;40693;43.884;20.340;2023-04-06T08:50:29;128.40;2252.80
54796;DHT22;40693;43.884;20.340;2023-04-06T08:52:55;128.40;2252.80
54796;DHT22;40693;43.884;20.340;2023-04-06T08:55:22;128.40;2252.80
54796;DHT22;40693;43.884;20.340;2023-04-06T08:57:48;128.40;2252.80
54796;DHT22;40693;43.884;20.340;2023-04-06T09:00:15;128.60;2252.80
54796;DHT22;40693;43.884;20.340;2023-04-06T09:02:43;128.70;2252.80
54796;DHT22;40693;43.884;20.340;2023-04-06T09:05:10;128.80;2252.80
54796;DHT22;40693;43.884;20.340;2023-04-06T09:07:37;128.80;2252.80
54796;DHT22;40693;43.884;20.340;2023-04-06T09:10:04;128.90;2252.80
54796;DHT22;40693;43.884;20.340;2023-04-06T09:12:32;128.90;2252.80
54796;DHT22;40693;43.884;20.340;2023-04-06T09:14:58;128.90;2252.80
54796;DHT22;40693;43.884;20.340;2023-04-06T09:17:25;128.80;2252.80
54796;DHT22;40693;43.884;20.340;2023-04-06T09:19:51;128.90;2252.80
54796;DHT22;40693;43.884;20.340;2023-04-06T09:22:17;128.80;2252.80
54796;DHT22;40693;43.884;20.340;2023-04-06T09:24:49;128.70;2252.80
54796;DHT22;40693;43.884;20.340;2023-04-06T09:27:16;153.60;2252.80
54796;DHT22;40693;43.884;20.340;2023-04-06T09:29:43;154.00;2252.80
54796;DHT22;40693;43.884;20.340;2023-04-06T09:32:09;153.90;2252.80
54796;DHT22;40693;43.884;20.340;2023-04-06T09:34:42;153.90;2252.80
54796;DHT22;40693;43.884;20.340;2023-04-06T09:37:18;154.20;2252.80
54796;DHT22;40693;43.884;20.340;2023-04-06T09:39:45;154.30;2201.60
54796;DHT22;40693;43.884;20.340;2023-04-06T09:42:23;154.40;2227.20
54796;DHT22;40693;43.884;20.340;2023-04-06T09:44:50;154.50;2201.60
54796;DHT22;40693;43.884;20.340;2023-04-06T09:47:16;154.50;2176.00
54796;DHT22;40693;43.884;20.340;2023-04-06T09:49:43;179.20;2176.00
54796;DHT22;40693;43.884;20.340;2023-04-06T09:52:11;179.30;2176.00
54796;DHT22;40693;43.884;20.340;2023-04-06T09:54:38;179.30;2150.40
54796;DHT22;40693;43.884;20.340;2023-04-06T09:59:54;179.40;2150.40
54796;DHT22;40693;43.884;20.340;2023-04-06T10:02:29;179.50;2099.20
54796;DHT22;40693;43.884;20.340;2023-04-06T10:05:05;179.60;2150.40
54796;DHT22;40693;43.884;20.340;2023-04-06T10:07:31;179.60;2099.20
54796;DHT22;40693;43.884;20.340;2023-04-06T10:09:58;179.70;2150.40
54796;DHT22;40693;43.884;20.340;2023-04-06T10:12:25;179.80;2150.40
54796;DHT22;40693;43.884;20.340;2023-04-06T10:14:51;179.70;2124.80
54796;DHT22;40693;43.884;20.340;2023-04-06T10:17:17;179.80;2124.80
54796;DHT22;40693;43.884;20.340;2023-04-06T10:20:06;179.90;2150.40
54796;DHT22;40693;43.884;20.340;2023-04-06T10:22:43;180.10;2099.20
54796;DHT22;40693;43.884;20.340;2023-04-06T10:25:09;204.80;2073.60
54796;DHT22;40693;43.884;20.340;2023-04-06T10:27:35;204.80;2073.60
54796;DHT22;40693;43.884;20.340;2023-04-06T10:30:02;205.10;2022.40
54796;DHT22;40693;43.884;20.340;2023-04-06T10:32:33;205.20;2022.40
54796;DHT22;40693;43.884;20.340;2023-04-06T10:35:09;205.40;2022.40
54796;DHT22;40693;43.884;20.340;2023-04-06T10:38:01;205.50;1996.80
54796;DHT22;40693;43.884;20.340;2023-04-06T10:40:27;205.60;1971.20
54796;DHT22;40693;43.884;20.340;2023-04-06T10:42:55;205.60;1971.20
54796;DHT22;40693;43.884;20.340;2023-04-06T10:45:22;205.60;1971.20
54796;DHT22;40693;43.884;20.340;2023-04-06T10:47:49;205.50;1945.60
54796;DHT22;40693;43.884;20.340;2023-04-06T10:50:15;205.60;1971.20
54796;DHT22;40693;43.884;20.340;2023-04-06T10:52:44;205.60;1945.60
54796;DHT22;40693;43.884;20.340;2023-04-06T10:55:15;205.50;1945.60
54796;DHT22;40693;43.884;20.340;2023-04-06T10:57:41;205.50;1945.60
54796;DHT22;40693;43.884;20.340;2023-04-06T11:00:08;205.50;1843.20
54796;DHT22;40693;43.884;20.340;2023-04-06T11:02:35;205.40;1894.40
54796;DHT22;40693;43.884;20.340;2023-04-06T11:05:03;205.40;1894.40
54796;DHT22;40693;43.884;20.340;2023-04-06T11:07:29;205.40;1945.60
54796;DHT22;40693;43.884;20.340;2023-04-06T11:09:56;205.30;1945.60
54796;DHT22;40693;43.884;20.340;2023-04-06T11:12:26;205.30;1920.00
54796;DHT22;40693;43.884;20.340;2023-04-06T11:14:57;205.40;1920.00
54796;DHT22;40693;43.884;20.340;2023-04-06T11:17:29;205.40;1945.60
54796;DHT22;40693;43.884;20.340;2023-04-06T11:19:55;205.30;1920.00
54796;DHT22;40693;43.884;20.340;2023-04-06T11:22:21;205.30;1945.60
54796;DHT22;40693;43.884;20.340;2023-04-06T11:24:47;205.30;1920.00
54796;DHT22;40693;43.884;20.340;2023-04-06T11:27:14;205.20;1920.00
54796;DHT22;40693;43.884;20.340;2023-04-06T11:29:43;205.30;1945.60
54796;DHT22;40693;43.884;20.340;2023-04-06T11:32:11;205.20;1920.00
54796;DHT22;40693;43.884;20.340;2023-04-06T11:34:46;205.20;1945.60
54796;DHT22;40693;43.884;20.340;2023-04-06T11:37:12;205.30;1920.00
54796;DHT22;40693;43.884;20.340;2023-04-06T11:39:48;205.40;1920.00
54796;DHT22;40693;43.884;20.340;2023-04-06T11:42:26;205.40;1920.00
54796;DHT22;40693;43.884;20.340;2023-04-06T11:44:57;205.40;1894.40
54796;DHT22;40693;43.884;20.340;2023-04-06T11:47:29;205.40;1894.40
54796;DHT22;40693;43.884;20.340;2023-04-06T11:49:56;205.50;1868.80
54796;DHT22;40693;43.884;20.340;2023-04-06T11:52:30;205.50;1868.80
54796;DHT22;40693;43.884;20.340;2023-04-06T11:54:56;205.60;1868.80
54796;DHT22;40693;43.884;20.340;2023-04-06T11:57:23;205.70;1868.80
54796;DHT22;40693;43.884;20.340;2023-04-06T11:59:53;205.70;1843.20
54796;DHT22;40693;43.884;20.340;2023-04-06T12:02:19;205.70;1843.20
54796;DHT22;40693;43.884;20.340;2023-04-06T12:04:45;205.70;1843.20
54796;DHT22;40693;43.884;20.340;2023-04-06T12:07:11;205.70;1843.20
54796;DHT22;40693;43.884;20.340;2023-04-06T12:09:37;205.60;1817.60
54796;DHT22;40693;43.884;20.340;2023-04-06T12:12:04;205.50;1843.20
54796;DHT22;40693;43.884;20.340;2023-04-06T12:14:30;205.60;1843.20
54796;DHT22;40693;43.884;20.340;2023-04-06T12:16:57;205.60;1817.60
54796;DHT22;40693;43.884;20.340;2023-04-06T12:19:23;205.70;1817.60
54796;DHT22;40693;43.884;20.340;2023-04-06T12:21:54;205.70;1817.60
54796;DHT22;40693;43.884;20.340;2023-04-06T12:24:20;230.40;1817.60
54796;DHT22;40693;43.884;20.340;2023-04-06T12:26:46;205.70;1817.60
54796;DHT22;40693;43.884;20.340;2023-04-06T12:29:12;205.70;1817.60
54796;DHT22;40693;43.884;20.340;2023-04-06T12:31:38;205.70;1792.00
54796;DHT22;40693;43.884;20.340;2023-04-06T12:34:06;205.70;1740.80
54796;DHT22;40693;43.884;20.340;2023-04-06T12:36:32;230.40;1766.40
54796;DHT22;40693;43.884;20.340;2023-04-06T12:38:59;230.40;1740.80
54796;DHT22;40693;43.884;20.340;2023-04-06T12:41:26;230.40;1740.80
54796;DHT22;40693;43.884;20.340;2023-04-06T12:43:51;230.40;1792.00
54796;DHT22;40693;43.884;20.340;2023-04-06T12:46:17;230.50;1766.40
54796;DHT22;40693;43.884;20.340;2023-04-06T12:48:43;230.50;1766.40
54796;DHT22;40693;43.884;20.340;2023-04-06T12:51:09;230.50;1740.80
54796;DHT22;40693;43.884;20.340;2023-04-06T12:53:35;230.60;1740.80
54796;DHT22;40693;43.884;20.340;2023-04-06T12:56:02;230.60;1766.40
54796;DHT22;40693;43.884;20.340;2023-04-06T12:58:28;230.80;1740.80
54796;DHT22;40693;43.884;20.340;2023-04-06T13:00:54;230.90;1689.60
54796;DHT22;40693;43.884;20.340;2023-04-06T13:03:21;230.90;1664.00
54796;DHT22;40693;43.884;20.340;2023-04-06T13:05:49;231.00;1664.00
54796;DHT22;40693;43.884;20.340;2023-04-06T13:08:16;256.10;2073.60
54796;DHT22;40693;43.884;20.340;2023-04-06T13:10:46;256.70;1894.40
54796;DHT22;40693;43.884;20.340;2023-04-06T13:13:14;282.10;1843.20
54796;DHT22;40693;43.884;20.340;2023-04-06T13:15:41;282.40;1638.40
54796;DHT22;40693;43.884;20.340;2023-04-06T13:18:07;282.00;1510.40
54796;DHT22;40693;43.884;20.340;2023-04-06T13:20:33;281.80;1536.00
54796;DHT22;40693;43.884;20.340;2023-04-06T13:22:59;281.70;1561.60
54796;DHT22;40693;43.884;20.340;2023-04-06T13:25:25;281.60;1536.00
54796;DHT22;40693;43.884;20.340;2023-04-06T13:27:50;281.60;1561.60
54796;DHT22;40693;43.884;20.340;2023-04-06T13:30:16;256.70;1510.40
54796;DHT22;40693;43.884;20.340;2023-04-06T13:32:42;256.60;1561.60
54796;DHT22;40693;43.884;20.340;2023-04-06T13:35:08;256.70;1536.00
54796;DHT22;40693;43.884;20.340;2023-04-06T13:37:35;256.60;1561.60
54796;DHT22;40693;43.884;20.340;2023-04-06T13:40:04;256.60;1484.80
54796;DHT22;40693;43.884;20.340;2023-04-06T13:42:31;256.40;1459.20
54796;DHT22;40693;43.884;20.340;2023-04-06T13:44:58;256.40;1484.80
54796;DHT22;40693;43.884;20.340;2023-04-06T13:47:23;256.50;1510.40
54796;DHT22;40693;43.884;20.340;2023-04-06T13:49:52;256.60;1459.20
54796;DHT22;40693;43.884;20.340;2023-04-06T13:52:18;256.60;1459.20
54796;DHT22;40693;43.884;20.340;2023-04-06T13:54:45;256.70;1459.20
54796;DHT22;40693;43.884;20.340;2023-04-06T13:57:11;256.60;1484.80
54796;DHT22;40693;43.884;20.340;2023-04-06T13:59:38;256.70;1484.80
54796;DHT22;40693;43.884;20.340;2023-04-06T14:02:07;256.70;1459.20
54796;DHT22;40693;43.884;20.340;2023-04-06T14:04:33;256.70;1484.80
54796;DHT22;40693;43.884;20.340;2023-04-06T14:06:59;256.80;1433.60
54796;DHT22;40693;43.884;20.340;2023-04-06T14:09:26;256.90;1433.60
54796;DHT22;40693;43.884;20.340;2023-04-06T14:11:52;256.80;1433.60
54796;DHT22;40693;43.884;20.340;2023-04-06T14:14:18;256.70;1433.60
54796;DHT22;40693;43.884;20.340;2023-04-06T14:16:44;256.60;1484.80
54796;DHT22;40693;43.884;20.340;2023-04-06T14:19:11;256.50;1484.80
54796;DHT22;40693;43.884;20.340;2023-04-06T14:21:40;256.50;1484.80
54796;DHT22;40693;43.884;20.340;2023-04-06T14:24:07;256.50;1510.40
54796;DHT22;40693;43.884;20.340;2023-04-06T14:26:34;256.60;1510.40
54796;DHT22;40693;43.884;20.340;2023-04-06T14:29:00;256.50;1484.80
54796;DHT22;40693;43.884;20.340;2023-04-06T14:31:26;256.40;1510.40
54796;DHT22;40693;43.884;20.340;2023-04-06T14:33:52;256.40;1536.00
54796;DHT22;40693;43.884;20.340;2023-04-06T14:36:18;256.40;1536.00
54796;DHT22;40693;43.884;20.340;2023-04-06T14:38:44;256.40;1536.00